Aérodrome :
LOGIN :

S'inscrire | Disclaimer

   EN    FR    IT 

 










Légende :    VFR   VFR Marginal   IFR   IFR Intensif   IFR Très Intensif
Visi : 
Plafond : 
>= 8 km
>= 3000ft
5 à 8 km
1000 à 3000 ft
1500m à 5 km
500 à 1000 ft
800 à 1500m
200 à 500 ft
< 800m
< 200 ft
Symboles :   Orages  Brouillard  Fortes neiges  Fortes précipitations  Vent > 20 kt
SIGMETs :   Divers  Orages  Givrage  Turbulence  Onde Orograph.  Cendres Volcan.






- Altitude de l'aérodrome : 863 ft
- Code IATA : ZAZ


LEZG - Zaragoza Aragon

DERNIER METAR :
  • 271630Z 31018KT 280V340 CAVOK 24/10 Q1018 NOSIG

METARs EXPIRÉS :
  • 271600Z 31016KT CAVOK 24/10 Q1018 NOSIG
  • 271530Z 30016KT 270V330 CAVOK 24/11 Q1018 NOSIG
  • 271500Z 30016KT 260V340 CAVOK 25/11 Q1018 NOSIG
  • 271430Z 30014KT 270V340 CAVOK 24/11 Q1018 NOSIG
  • 271400Z 31013KT CAVOK 24/11 Q1019 NOSIG
  • 271330Z 30011KT 280V340 CAVOK 23/12 Q1019 NOSIG
  • 271300Z 31012KT 280V350 9999 FEW060 23/12 Q1019 NOSIG
  • 271230Z 30014KT 270V350 9999 SCT035 22/11 Q1019 NOSIG
  • 271200Z 31013KT 260V360 9999 SCT035 22/11 Q1020 NOSIG

TAF TAF LEZG
Valide du 27 à 12h jusqu'au 28 à 12h UTC


271100Z 2712/2812 31015KT 9999 FEW040 TX27/2715Z TN13/2806Z
TEMPO 2712/2720 30015G25KT
BECMG 2800/2802 30009KT



MET'MAP, la Météo Aéronautique d'un coup d'oeil ! - Copyright ORBIFLY Décembre 2007 - Disclaimer

ORBIFLY MET'MAP TEAM :

Programmation & Développement : Alexandra Zaïnal
Sur une idée originale de : Baudouin d'Aumeries
Soutien technique & logistique : Manuel Goepfert
Assistance : Marc-Olivier Méhu




SOURCES & CREDITS :

   NOAA